Time;durP1;ratioP1;P1;durP2;ratioP2;P2;SDS_P1;SDS_P2;PMS_P1;PMS_P2;Temp;Humidity;BMP_temperature;BMP_pressure;BME280_temperature;BME280_humidity;BME280_pressure;Samples;Min_cycle;Max_cycle;Signal;HPM_P1;HPM_P2
2021/04/24 00:00:24;;;;;;;24.45;8.03;;;;;;;3.91;50.51;101458.98;1753006;80;28317;-63
2021/04/24 00:02:55;;;;;;;16.50;6.90;;;;;;;3.97;50.58;101459.41;1787145;78;25870;-63
2021/04/24 00:05:32;;;;;;;28.35;7.65;;;;;;;4.03;50.76;101463.36;1738462;81;25835;-63
2021/04/24 00:08:04;;;;;;;18.75;6.37;;;;;;;4.08;50.83;101457.16;1754039;78;25889;-63
2021/04/24 00:10:36;;;;;;;17.55;6.87;;;;;;;4.13;50.95;101457.14;1731731;81;26692;-63
2021/04/24 00:13:07;;;;;;;15.68;6.03;;;;;;;4.17;50.86;101454.91;1763400;80;27977;-63
2021/04/24 00:15:38;;;;;;;17.52;6.30;;;;;;;4.22;50.90;101459.75;1795737;78;35031;-63
2021/04/24 00:18:11;;;;;;;19.02;6.83;;;;;;;4.23;50.97;101446.48;1759736;78;25802;-63
2021/04/24 00:20:43;;;;;;;23.32;8.68;;;;;;;4.27;51.01;101439.83;1725967;80;26510;-63
2021/04/24 00:23:11;;;;;;;20.85;7.80;;;;;;;4.28;51.03;101436.28;1714972;82;25867;-63
2021/04/24 00:25:41;;;;;;;17.10;7.30;;;;;;;4.30;51.07;101443.34;1782924;78;27401;-63
2021/04/24 00:28:11;;;;;;;18.57;7.22;;;;;;;4.33;51.13;101445.11;1763564;80;26262;-63
2021/04/24 00:30:42;;;;;;;16.93;7.45;;;;;;;4.34;51.12;101443.77;1788800;78;25918;-63
2021/04/24 00:33:10;;;;;;;20.08;6.97;;;;;;;4.37;51.19;101441.09;1770263;80;25997;-64
2021/04/24 00:35:38;;;;;;;19.75;7.20;;;;;;;4.40;51.23;101438.43;1755561;80;25859;-63
2021/04/24 00:38:06;;;;;;;17.90;6.58;;;;;;;4.43;51.22;101442.84;1758984;80;28202;-60
2021/04/24 00:40:34;;;;;;;17.77;6.35;;;;;;;4.46;51.24;101434.86;1777561;79;25680;-61
2021/04/24 00:43:03;;;;;;;18.55;6.15;;;;;;;4.48;51.29;101433.95;1773863;79;25924;-60
2021/04/24 00:45:32;;;;;;;20.80;6.42;;;;;;;4.52;51.31;101437.48;1753505;79;25970;-60
2021/04/24 00:48:00;;;;;;;19.02;6.30;;;;;;;4.55;51.34;101442.33;1750927;80;26680;-60
2021/04/24 00:50:33;;;;;;;13.00;6.10;;;;;;;4.59;51.34;101435.22;1776738;79;27982;-61
2021/04/24 00:53:04;;;;;;;13.28;5.62;;;;;;;4.62;51.34;101436.53;1754120;80;26259;-60
2021/04/24 00:55:33;;;;;;;19.62;5.50;;;;;;;4.63;51.33;101438.73;1753736;80;25951;-60
2021/04/24 00:58:06;;;;;;;15.48;5.47;;;;;;;4.63;51.36;101442.28;1751797;80;25901;-61
2021/04/24 01:00:34;;;;;;;13.08;5.20;;;;;;;4.64;51.35;101448.02;1770885;79;25816;-60
2021/04/24 01:03:01;;;;;;;20.35;5.80;;;;;;;4.62;51.45;101440.52;1771592;79;27871;-60
2021/04/24 01:05:37;;;;;;;16.82;5.05;;;;;;;4.58;51.42;101435.23;1766305;79;26125;-61
2021/04/24 01:08:09;;;;;;;13.22;5.45;;;;;;;4.53;51.43;101441.45;1699894;83;26539;-61
2021/04/24 01:10:43;;;;;;;19.70;5.72;;;;;;;4.49;51.49;101432.19;1747100;80;26076;-60
2021/04/24 01:13:14;;;;;;;14.30;5.22;;;;;;;4.48;51.56;101438.39;1733544;80;25778;-60
2021/04/24 01:15:43;;;;;;;15.80;6.28;;;;;;;4.47;51.60;101440.61;1773409;79;27920;-60
2021/04/24 01:18:12;;;;;;;11.80;4.95;;;;;;;4.46;51.67;101434.41;1773368;79;26000;-61
2021/04/24 01:20:42;;;;;;;12.55;5.08;;;;;;;4.47;51.74;101434.84;1749499;80;25883;-61
2021/04/24 01:23:11;;;;;;;7.67;3.98;;;;;;;4.47;51.79;101426.89;1756289;80;26625;-61
2021/04/24 01:25:42;;;;;;;18.67;5.05;;;;;;;4.50;51.84;101433.95;1773222;79;25768;-60
2021/04/24 01:28:12;;;;;;;11.22;5.05;;;;;;;4.49;51.87;101433.52;1721529;80;27799;-61
2021/04/24 01:30:44;;;;;;;14.45;4.58;;;;;;;4.49;51.91;101433.06;1756085;80;26625;-62
2021/04/24 01:33:13;;;;;;;11.43;4.50;;;;;;;4.49;52.00;101434.40;1744620;79;25789;-60
2021/04/24 01:35:43;;;;;;;14.35;4.55;;;;;;;4.49;52.05;101432.19;1729726;80;25833;-61
2021/04/24 01:38:12;;;;;;;11.43;4.62;;;;;;;4.49;52.09;101434.84;1772659;78;26557;-60
2021/04/24 01:40:41;;;;;;;12.95;4.50;;;;;;;4.47;52.22;101435.30;1789607;78;27926;-60
2021/04/24 01:43:10;;;;;;;12.55;5.03;;;;;;;4.47;52.27;101437.95;1792226;78;25860;-60
2021/04/24 01:45:40;;;;;;;9.83;4.50;;;;;;;4.47;52.34;101441.94;1791275;78;25953;-61
2021/04/24 01:48:08;;;;;;;10.28;4.72;;;;;;;4.46;52.41;101443.70;1765081;79;25817;-61
2021/04/24 01:50:43;;;;;;;14.75;5.22;;;;;;;4.44;52.51;101440.63;1763805;78;25946;-62
2021/04/24 01:53:22;;;;;;;11.33;4.50;;;;;;;4.44;52.60;101439.30;1788733;78;26311;-61
2021/04/24 01:55:51;;;;;;;14.98;5.17;;;;;;;4.44;52.62;101431.33;1788017;78;25909;-61
2021/04/24 01:58:22;;;;;;;17.98;5.47;;;;;;;4.44;52.74;101431.33;1766595;79;26383;-60
2021/04/24 02:00:57;;;;;;;16.35;5.33;;;;;;;4.45;52.77;101436.63;1740800;80;26453;-60
2021/04/24 02:03:26;;;;;;;13.15;4.17;;;;;;;4.47;52.83;101431.31;1781743;78;25793;-60
2021/04/24 02:05:54;;;;;;;11.22;5.03;;;;;;;4.48;52.85;101427.77;1789353;78;27728;-60
2021/04/24 02:08:32;;;;;;;11.50;4.28;;;;;;;4.46;52.90;101433.53;1788203;78;25786;-61
2021/04/24 02:11:01;;;;;;;13.30;4.33;;;;;;;4.45;53.00;101430.44;1767449;78;25866;-60
2021/04/24 02:13:34;;;;;;;17.35;5.40;;;;;;;4.44;53.03;101429.56;1765036;79;25741;-61
2021/04/24 02:16:07;;;;;;;15.93;4.40;;;;;;;4.45;53.10;101433.09;1731588;80;25760;-60
2021/04/24 02:18:36;;;;;;;13.18;4.70;;;;;;;4.43;53.18;101432.22;1739089;79;27532;-61
2021/04/24 02:21:06;;;;;;;12.82;4.78;;;;;;;4.43;53.32;101434.88;1791372;78;25835;-60
2021/04/24 02:23:38;;;;;;;12.30;3.80;;;;;;;4.41;53.48;101437.54;1762531;78;25860;-60
2021/04/24 02:26:08;;;;;;;12.78;3.90;;;;;;;4.40;53.82;101441.53;1765244;78;26596;-60
2021/04/24 02:28:36;;;;;;;11.12;4.78;;;;;;;4.38;53.83;101437.55;1764973;78;33259;-60
2021/04/24 02:31:04;;;;;;;9.65;4.28;;;;;;;4.39;53.90;101431.80;1773558;78;27607;-60
2021/04/24 02:33:32;;;;;;;12.55;4.12;;;;;;;4.37;54.03;101426.95;1810988;78;26650;-60
2021/04/24 02:36:01;;;;;;;15.00;4.55;;;;;;;4.37;54.20;101421.64;1814035;78;25782;-60
2021/04/24 02:38:33;;;;;;;15.72;5.28;;;;;;;4.36;54.22;101418.10;1767808;78;26383;-60
2021/04/24 02:41:05;;;;;;;11.60;4.62;;;;;;;4.35;54.31;101410.15;1778239;78;25852;-60
2021/04/24 02:43:35;;;;;;;13.80;4.78;;;;;;;4.35;54.36;101410.15;1778010;78;27857;-60
2021/04/24 02:46:02;;;;;;;14.83;4.50;;;;;;;4.35;54.42;101406.17;1771131;78;25839;-60
2021/04/24 02:48:32;;;;;;;14.68;4.67;;;;;;;4.33;54.48;101403.52;1807241;78;26567;-61
2021/04/24 02:51:03;;;;;;;83.60;20.62;;;;;;;4.36;54.63;101403.95;1776840;78;26110;-60
2021/04/24 02:53:33;;;;;;;171.93;41.90;;;;;;;4.36;54.71;101397.31;1760368;78;25838;-60
2021/04/24 02:56:01;;;;;;;121.47;30.57;;;;;;;4.37;54.86;101396.42;1773912;78;28335;-60
2021/04/24 02:58:30;;;;;;;61.33;17.82;;;;;;;4.26;54.85;101378.36;1810856;78;25961;-60
2021/04/24 03:00:58;;;;;;;44.00;14.47;;;;;;;4.39;55.01;101396.85;1777499;78;25868;-60
2021/04/24 03:03:28;;;;;;;28.27;8.80;;;;;;;4.40;55.11;101397.73;1802664;78;26110;-61
2021/04/24 03:05:58;;;;;;;25.75;7.25;;;;;;;4.41;55.19;101395.07;1780751;79;25985;-60
2021/04/24 03:08:27;;;;;;;16.30;6.00;;;;;;;4.42;55.30;101392.85;1770610;78;27812;-61
2021/04/24 03:10:56;;;;;;;22.77;6.37;;;;;;;4.44;55.43;101391.07;1783608;79;26140;-60
2021/04/24 03:13:24;;;;;;;19.95;5.92;;;;;;;4.46;55.56;101392.39;1763819;79;25826;-61
2021/04/24 03:15:52;;;;;;;13.78;4.97;;;;;;;4.46;55.89;101401.23;1734734;81;25942;-60
2021/04/24 03:18:20;;;;;;;18.62;6.40;;;;;;;4.49;55.78;101396.34;1804367;78;26242;-61
2021/04/24 03:20:47;;;;;;;27.02;6.92;;;;;;;4.51;55.83;101395.89;1796139;78;27473;-60
2021/04/24 03:23:16;;;;;;;31.65;8.55;;;;;;;4.52;55.88;101401.20;1765699;78;26431;-60
2021/04/24 03:25:44;;;;;;;24.18;7.65;;;;;;;4.53;56.23;101393.66;1766383;78;25895;-61
2021/04/24 03:28:12;;;;;;;28.55;7.95;;;;;;;4.55;56.19;101400.29;1774268;79;26187;-60
2021/04/24 03:30:41;;;;;;;20.80;7.08;;;;;;;4.56;56.24;101396.30;1788630;78;26313;-61
2021/04/24 03:33:08;;;;;;;24.87;7.33;;;;;;;4.59;56.40;101397.17;1771169;79;27004;-60
2021/04/24 03:35:36;;;;;;;15.03;4.72;;;;;;;4.63;56.59;101403.78;1792120;78;25715;-60
2021/04/24 03:38:04;;;;;;;17.42;5.37;;;;;;;4.66;56.67;101404.20;1776222;78;25911;-60
2021/04/24 03:40:31;;;;;;;11.65;3.42;;;;;;;4.67;56.67;101400.66;1792068;78;25862;-60
2021/04/24 03:43:00;;;;;;;12.85;3.45;;;;;;;4.72;56.86;101403.72;1781843;78;26049;-61
2021/04/24 03:45:30;;;;;;;12.63;3.30;;;;;;;4.76;56.92;101398.81;1761205;78;27579;-60
2021/04/24 03:47:58;;;;;;;16.85;3.12;;;;;;;4.81;56.95;101400.98;1763620;79;26464;-60
2021/04/24 03:50:27;;;;;;;13.28;3.47;;;;;;;4.86;56.95;101402.28;1778308;78;25899;-60
2021/04/24 03:52:55;;;;;;;11.60;3.37;;;;;;;4.89;57.04;101406.24;1764089;79;26042;-60
2021/04/24 03:55:24;;;;;;;8.43;3.77;;;;;;;4.92;57.06;101402.67;1764103;78;26781;-60
2021/04/24 03:57:55;;;;;;;12.78;3.70;;;;;;;4.94;57.16;101396.91;1760188;79;25812;-60
2021/04/24 04:00:30;;;;;;;9.48;3.50;;;;;;;4.97;57.08;101404.85;1790713;78;25799;-59
2021/04/24 04:03:05;;;;;;;8.50;3.00;;;;;;;4.93;57.10;101389.38;1758803;79;26151;-60
2021/04/24 04:05:39;;;;;;;14.60;3.85;;;;;;;5.02;57.22;101403.03;1766754;78;26718;-60
2021/04/24 04:08:09;;;;;;;14.05;4.22;;;;;;;5.02;57.15;101405.25;1760630;79;25990;-61
2021/04/24 04:10:39;;;;;;;9.85;3.85;;;;;;;5.05;57.18;101396.37;1797649;78;25930;-60
2021/04/24 04:13:09;;;;;;;14.00;4.97;;;;;;;5.07;57.19;101403.88;1790059;78;25989;-60
2021/04/24 04:15:38;;;;;;;14.73;3.25;;;;;;;5.08;57.12;101400.33;1777113;79;26015;-60
2021/04/24 04:18:16;;;;;;;17.43;3.30;;;;;;;5.07;57.18;101394.58;1792226;78;25913;-60
2021/04/24 04:20:51;;;;;;;8.13;3.22;;;;;;;4.98;57.12;101374.73;1766812;79;25938;-60
2021/04/24 04:23:24;;;;;;;14.30;4.17;;;;;;;5.11;57.10;101398.52;1762089;80;27941;-60
2021/04/24 04:25:55;;;;;;;11.15;3.70;;;;;;;5.11;57.12;101393.21;1736046;81;25820;-61
2021/04/24 04:28:26;;;;;;;15.68;4.55;;;;;;;5.10;57.09;101387.46;1779274;78;26123;-61
2021/04/24 04:30:57;;;;;;;7.62;3.67;;;;;;;5.11;57.08;101389.22;1752795;80;25769;-61
2021/04/24 04:33:26;;;;;;;;;;;;;;;5.13;57.22;101394.53;1740172;81;25783;-60
2021/04/24 04:36:03;;;;;;;18.20;3.80;;;;;;;5.10;57.18;101394.11;1756284;79;28010;-60
2021/04/24 04:38:29;;;;;;;12.70;3.47;;;;;;;5.09;57.33;101396.77;1768063;78;26625;-60
2021/04/24 04:40:57;;;;;;;11.80;3.95;;;;;;;5.10;57.27;101397.21;1766186;79;30502;-60
2021/04/24 04:43:29;;;;;;;18.55;3.95;;;;;;;5.10;57.31;101398.54;1792042;78;26358;-60
2021/04/24 04:45:57;;;;;;;13.22;3.52;;;;;;;5.12;57.34;101411.36;1763543;79;25797;-60
2021/04/24 04:48:25;;;;;;;11.12;3.92;;;;;;;5.13;57.33;101401.17;1773231;78;28547;-60
2021/04/24 04:50:53;;;;;;;8.70;3.42;;;;;;;5.12;57.44;101402.06;1772341;79;25843;-60
2021/04/24 04:53:20;;;;;;;13.90;3.37;;;;;;;5.12;57.43;101390.10;1795294;78;25839;-60
2021/04/24 04:55:48;;;;;;;8.23;3.67;;;;;;;5.12;57.51;101399.41;1766012;78;26176;-61
2021/04/24 04:58:16;;;;;;;11.22;3.95;;;;;;;5.11;57.62;101401.62;1772287;79;26583;-60
2021/04/24 05:00:44;;;;;;;10.10;3.40;;;;;;;5.12;57.59;101403.39;1794752;78;27784;-61
2021/04/24 05:03:16;;;;;;;9.13;3.70;;;;;;;5.12;57.61;101399.41;1797589;78;25863;-61
2021/04/24 05:05:45;;;;;;;10.63;3.47;;;;;;;5.14;57.63;101406.47;1742938;79;25751;-61
2021/04/24 05:08:14;;;;;;;9.18;4.22;;;;;;;5.16;57.62;101403.35;1789902;78;25746;-61
2021/04/24 05:10:42;;;;;;;15.68;3.83;;;;;;;5.20;57.61;101398.89;1800544;78;25824;-60
2021/04/24 05:13:10;;;;;;;9.50;3.62;;;;;;;5.24;57.61;101411.22;1795488;78;27808;-61
2021/04/24 05:15:38;;;;;;;7.37;3.58;;;;;;;5.29;57.58;101403.20;1760641;78;26372;-60
2021/04/24 05:18:06;;;;;;;8.60;3.10;;;;;;;5.34;57.58;101411.56;1792565;78;26147;-60
2021/04/24 05:20:34;;;;;;;11.63;2.80;;;;;;;5.39;57.54;101411.52;1795186;78;25787;-61
2021/04/24 05:23:03;;;;;;;12.37;3.65;;;;;;;5.42;57.55;101408.38;1795669;78;26117;-61
2021/04/24 05:25:30;;;;;;;11.38;3.60;;;;;;;5.47;57.57;101403.02;1806883;78;28341;-60
2021/04/24 05:27:58;;;;;;;11.78;3.62;;;;;;;5.55;57.60;101406.03;1768674;78;26795;-61
2021/04/24 05:30:28;;;;;;;13.93;3.40;;;;;;;5.65;57.57;101413.91;1784137;78;25881;-60
2021/04/24 05:32:57;;;;;;;17.60;3.27;;;;;;;5.74;57.56;101407.16;1761686;78;26540;-60
2021/04/24 05:35:26;;;;;;;14.53;4.05;;;;;;;5.84;57.52;101404.83;1793373;78;26038;-60
2021/04/24 05:37:54;;;;;;;14.63;3.42;;;;;;;5.94;57.42;101406.96;1776821;79;27886;-59
2021/04/24 05:40:22;;;;;;;10.58;3.37;;;;;;;6.00;57.36;101404.23;1747136;79;25791;-60
2021/04/24 05:42:52;;;;;;;15.75;3.05;;;;;;;6.08;57.30;101404.56;1738361;80;26695;-60
2021/04/24 05:45:22;;;;;;;7.55;3.52;;;;;;;6.11;57.17;101404.97;1763267;78;25912;-60
2021/04/24 05:47:55;;;;;;;9.35;3.05;;;;;;;6.18;57.15;101407.98;1763660;80;25618;-59
2021/04/24 05:50:26;;;;;;;4.87;3.02;;;;;;;6.25;57.03;101408.78;1769699;78;28596;-60
2021/04/24 05:52:58;;;;;;;17.25;3.80;;;;;;;6.31;56.94;101412.69;1767713;79;25797;-60
2021/04/24 05:55:26;;;;;;;7.97;2.52;;;;;;;6.35;56.77;101410.42;1766505;78;26197;-60
2021/04/24 05:57:53;;;;;;;9.10;3.10;;;;;;;6.33;56.66;101398.91;1798183;78;26648;-60
2021/04/24 06:00:24;;;;;;;13.72;4.55;;;;;;;6.36;56.70;101405.52;1788869;78;26640;-61
2021/04/24 06:02:52;;;;;;;15.93;3.65;;;;;;;6.39;56.66;101411.69;1789331;78;28030;-60
2021/04/24 06:05:20;;;;;;;11.18;3.22;;;;;;;6.41;56.60;101411.66;1791344;78;26022;-59
2021/04/24 06:07:49;;;;;;;9.15;3.27;;;;;;;6.44;56.47;101419.16;1803991;78;26028;-60
2021/04/24 06:10:18;;;;;;;24.43;4.22;;;;;;;6.44;56.40;101418.28;1766630;79;26226;-60
2021/04/24 06:12:48;;;;;;;9.30;3.27;;;;;;;6.43;56.41;101416.52;1768198;78;26103;-60
2021/04/24 06:15:20;;;;;;;17.40;4.33;;;;;;;6.39;56.29;101417.01;1793234;78;27427;-60
2021/04/24 06:17:48;;;;;;;11.20;3.77;;;;;;;6.39;56.36;101412.14;1768029;78;26431;-60
2021/04/24 06:20:17;;;;;;;12.53;4.05;;;;;;;6.37;56.24;101420.59;1761999;79;26648;-60
2021/04/24 06:22:47;;;;;;;21.52;3.65;;;;;;;6.37;56.36;101415.27;1787186;78;26113;-60
2021/04/24 06:25:19;;;;;;;16.60;4.40;;;;;;;6.36;56.32;101414.39;1771501;78;25771;-60
2021/04/24 06:27:48;;;;;;;8.88;3.60;;;;;;;6.40;56.33;101416.11;1800656;78;28121;-60
2021/04/24 06:30:21;;;;;;;15.25;4.47;;;;;;;6.45;56.38;101424.03;1780525;78;26007;-60
2021/04/24 06:32:51;;;;;;;12.10;3.80;;;;;;;6.47;56.33;101419.56;1744042;79;25991;-60
2021/04/24 06:35:25;;;;;;;18.07;3.62;;;;;;;6.46;56.30;101415.14;1721110;81;32690;-60
2021/04/24 06:37:56;;;;;;;9.33;4.15;;;;;;;6.44;56.34;101428.93;1742975;79;25872;-60
2021/04/24 06:40:25;;;;;;;10.40;3.93;;;;;;;6.41;56.32;101423.64;1738867;79;27398;-60
2021/04/24 06:42:54;;;;;;;11.25;3.80;;;;;;;6.40;56.39;101418.77;1769752;78;25795;-59
2021/04/24 06:45:23;;;;;;;14.53;4.05;;;;;;;6.43;56.40;101417.84;1773347;78;26576;-60
2021/04/24 06:47:55;;;;;;;13.35;4.62;;;;;;;6.48;56.44;101422.21;1761712;79;26451;-60
2021/04/24 06:50:23;;;;;;;12.35;4.15;;;;;;;6.55;56.47;101421.67;1709355;81;25831;-62
2021/04/24 06:52:51;;;;;;;13.70;4.12;;;;;;;6.61;56.46;101416.25;1784610;78;28425;-61
2021/04/24 06:55:22;;;;;;;7.67;3.52;;;;;;;6.69;56.45;101421.02;1759778;78;25849;-61
2021/04/24 06:57:52;;;;;;;10.40;4.25;;;;;;;6.70;56.42;101420.56;1767643;79;25833;-61
2021/04/24 07:00:22;;;;;;;13.90;3.87;;;;;;;6.67;56.45;101418.83;1759014;79;25752;-61
2021/04/24 07:02:50;;;;;;;12.15;3.98;;;;;;;6.75;56.56;101408.94;1770911;79;25408;-62
2021/04/24 07:05:18;;;;;;;11.15;4.30;;;;;;;6.86;56.54;101413.22;1795265;78;27829;-61
2021/04/24 07:07:45;;;;;;;11.38;3.90;;;;;;;6.92;56.53;101416.66;1768046;78;26157;-60
2021/04/24 07:10:16;;;;;;;14.18;4.53;;;;;;;7.03;56.56;101416.48;1770579;79;25773;-61
2021/04/24 07:12:46;;;;;;;11.25;3.90;;;;;;;7.10;56.54;101413.70;1800850;78;26459;-61
2021/04/24 07:15:16;;;;;;;9.88;3.85;;;;;;;7.15;56.46;101415.83;1773839;78;25841;-62
2021/04/24 07:17:45;;;;;;;16.20;4.67;;;;;;;7.09;56.37;101401.73;1774376;78;28175;-60
2021/04/24 07:20:14;;;;;;;20.15;4.60;;;;;;;7.11;56.33;101421.24;1780179;78;25940;-60
2021/04/24 07:22:42;;;;;;;17.77;4.37;;;;;;;7.12;56.47;101415.88;1806985;78;25888;-61
2021/04/24 07:25:11;;;;;;;20.70;4.83;;;;;;;7.16;56.43;101414.92;1802747;78;26007;-61
2021/04/24 07:27:39;;;;;;;13.15;4.87;;;;;;;7.18;56.41;101414.91;1779399;78;25812;-61
2021/04/24 07:30:10;;;;;;;13.00;5.45;;;;;;;7.16;56.45;101418.05;1783197;79;27438;-63
2021/04/24 07:32:39;;;;;;;18.75;5.40;;;;;;;7.20;56.53;101417.09;1769043;78;33791;-63
2021/04/24 07:35:10;;;;;;;20.37;5.50;;;;;;;7.25;56.55;101416.55;1799343;78;26681;-62
2021/04/24 07:37:42;;;;;;;;;;;;;;;7.33;56.51;101413.30;1787880;78;25631;-63
2021/04/24 07:40:13;;;;;;;13.58;4.60;;;;;;;7.44;56.55;101416.66;1773506;78;27007;-61
2021/04/24 07:42:42;;;;;;;13.45;4.47;;;;;;;7.51;56.56;101422.76;1772515;78;28075;-62
2021/04/24 07:45:14;;;;;;;18.07;5.92;;;;;;;7.61;56.45;101431.02;1772247;78;26498;-61
2021/04/24 07:47:44;;;;;;;15.32;5.35;;;;;;;7.57;56.40;101425.77;1770970;78;25853;-62
2021/04/24 07:50:18;;;;;;;16.95;4.92;;;;;;;7.57;56.32;101424.44;1800379;78;25863;-61
2021/04/24 07:52:48;;;;;;;13.35;4.15;;;;;;;7.53;56.45;101430.28;1776206;78;28025;-62
2021/04/24 07:55:16;;;;;;;7.53;3.83;;;;;;;7.59;56.38;101431.95;1809076;78;27804;-61
2021/04/24 07:57:44;;;;;;;14.23;4.45;;;;;;;7.63;56.42;101429.66;1763292;78;25806;-62
2021/04/24 08:00:14;;;;;;;22.25;5.20;;;;;;;7.74;56.53;101431.67;1760083;79;25941;-61
2021/04/24 08:02:42;;;;;;;15.55;4.75;;;;;;;7.81;56.46;101433.28;1784951;78;25861;-64
2021/04/24 08:05:11;;;;;;;13.08;5.08;;;;;;;7.89;56.41;101434.01;1798502;78;25966;-62
2021/04/24 08:07:41;;;;;;;10.43;4.17;;;;;;;7.89;56.33;101433.13;1788894;78;26279;-62
2021/04/24 08:10:10;;;;;;;13.68;5.62;;;;;;;7.94;56.40;101433.45;1772381;79;25879;-65
2021/04/24 08:12:37;;;;;;;15.25;5.20;;;;;;;7.94;56.20;101433.45;1768569;78;25944;-63
2021/04/24 08:15:09;;;;;;;13.70;4.92;;;;;;;7.86;56.25;101439.41;1795727;78;26096;-63
2021/04/24 08:17:38;;;;;;;13.98;5.15;;;;;;;7.80;56.28;101431.06;1758804;78;25839;-63
2021/04/24 08:20:14;;;;;;;13.38;3.95;;;;;;;7.83;56.40;101428.78;1769887;79;27766;-63
2021/04/24 08:22:42;;;;;;;9.00;4.60;;;;;;;7.86;56.36;101428.73;1769642;78;25846;-63
2021/04/24 08:25:11;;;;;;;10.40;4.65;;;;;;;7.85;56.37;101432.77;1796668;78;25842;-63
2021/04/24 08:27:41;;;;;;;10.25;4.80;;;;;;;7.81;56.33;101435.95;1793715;78;25801;-61
2021/04/24 08:30:14;;;;;;;8.70;4.28;;;;;;;7.74;56.34;101434.34;1796535;78;25939;-66
2021/04/24 08:32:44;;;;;;;18.92;4.95;;;;;;;7.73;56.44;101436.58;1763001;78;25930;-59
2021/04/24 08:35:14;;;;;;;9.40;4.65;;;;;;;7.72;56.59;101437.48;1789245;78;26441;-59
2021/04/24 08:37:44;;;;;;;12.45;4.87;;;;;;;7.74;56.55;101440.55;1796879;78;26217;-62
2021/04/24 08:40:17;;;;;;;13.13;4.85;;;;;;;7.70;56.69;101436.19;1795520;78;26542;-62
2021/04/24 08:42:48;;;;;;;14.80;5.20;;;;;;;7.71;56.79;101437.06;1810538;78;25894;-61
2021/04/24 08:45:19;;;;;;;15.10;5.08;;;;;;;7.78;56.78;101434.25;1769533;78;25821;-70
2021/04/24 08:47:52;;;;;;;13.78;4.90;;;;;;;7.85;56.78;101433.64;1762475;78;25873;-63
2021/04/24 08:50:28;;;;;;;12.47;4.80;;;;;;;7.87;56.78;101438.49;1765639;78;26454;-60
2021/04/24 08:52:58;;;;;;;14.85;5.75;;;;;;;7.87;56.82;101434.95;1780093;79;26846;-61
2021/04/24 08:55:31;;;;;;;14.93;4.97;;;;;;;7.88;56.92;101432.70;1764113;78;26171;-69
2021/04/24 08:57:59;;;;;;;11.05;4.83;;;;;;;7.96;56.96;101428.09;1764360;79;28008;-62
2021/04/24 09:00:37;;;;;;;14.87;5.37;;;;;;;8.07;56.95;101430.97;1760180;78;26069;-61
2021/04/24 09:03:12;;;;;;;14.33;4.58;;;;;;;8.06;56.89;101429.20;1737238;81;26199;-60
2021/04/24 09:05:40;;;;;;;11.20;5.12;;;;;;;8.12;56.86;101436.21;1714480;81;25788;-60
2021/04/24 09:08:12;;;;;;;11.03;5.10;;;;;;;8.06;56.87;101429.66;1733568;80;26113;-64
2021/04/24 09:10:44;;;;;;;15.60;5.15;;;;;;;8.11;56.93;101432.66;1751446;81;27926;-60
2021/04/24 09:13:16;;;;;;;14.85;5.22;;;;;;;8.25;56.98;101433.71;1743789;81;26297;-61
2021/04/24 09:15:46;;;;;;;10.68;4.60;;;;;;;8.33;56.97;101433.58;1739890;80;25918;-60
2021/04/24 09:18:16;;;;;;;17.73;5.72;;;;;;;8.40;56.97;101437.42;1737879;81;26419;-59
2021/04/24 09:21:04;;;;;;;19.73;5.83;;;;;;;8.58;56.99;101431.25;1783480;79;26514;-60
2021/04/24 09:23:38;;;;;;;13.68;5.85;;;;;;;8.69;56.93;101431.42;1800131;78;28149;-61
2021/04/24 09:26:15;;;;;;;12.68;4.70;;;;;;;8.77;56.78;101416.55;1808904;78;25854;-61
2021/04/24 09:28:50;;;;;;;17.65;5.58;;;;;;;8.79;56.70;101404.91;1776708;78;25670;-60
2021/04/24 09:31:25;;;;;;;9.98;4.60;;;;;;;8.85;56.70;101411.90;1750801;79;25582;-60
2021/04/24 09:34:00;;;;;;;11.78;4.40;;;;;;;8.93;56.57;101415.72;1757804;79;25599;-60
2021/04/24 09:36:38;;;;;;;17.42;5.42;;;;;;;9.08;56.49;101410.00;1761427;78;25776;-60
2021/04/24 09:39:10;;;;;;;11.43;5.00;;;;;;;9.21;56.33;101407.89;1799071;78;26436;-61
2021/04/24 09:41:43;;;;;;;13.62;5.35;;;;;;;9.39;56.31;101406.08;1761754;79;25820;-60
2021/04/24 09:44:16;;;;;;;9.83;4.25;;;;;;;9.46;56.13;101416.16;1780583;79;26170;-61
2021/04/24 09:46:53;;;;;;;13.05;4.30;;;;;;;9.46;55.80;101406.34;1751915;79;25943;-61
2021/04/24 09:49:33;;;;;;;10.23;4.72;;;;;;;9.36;55.50;101408.84;1754850;80;27636;-60
2021/04/24 09:52:06;;;;;;;16.55;4.45;;;;;;;9.30;55.57;101400.97;1750757;79;26303;-60
2021/04/24 09:54:46;;;;;;;9.88;4.40;;;;;;;9.29;55.50;101400.09;1759316;79;25852;-60
2021/04/24 09:57:22;;;;;;;9.15;4.00;;;;;;;9.31;55.33;101406.28;1754132;79;26104;-59
2021/04/24 09:59:57;;;;;;;13.05;4.20;;;;;;;9.22;55.19;101405.64;1778010;79;25848;-66
2021/04/24 10:02:40;;;;;;;9.50;4.78;;;;;;;9.16;55.21;101405.34;1761756;79;26014;-65
2021/04/24 10:05:18;;;;;;;11.43;5.05;;;;;;;9.18;55.15;101400.83;1750614;80;26320;-66
2021/04/24 10:07:55;;;;;;;9.33;3.85;;;;;;;9.20;55.14;101399.45;1748159;79;25805;-65
2021/04/24 10:10:38;;;;;;;12.33;4.45;;;;;;;9.19;54.62;101401.70;1752762;80;26004;-62
2021/04/24 10:13:10;;;;;;;12.25;4.72;;;;;;;9.17;54.77;101396.39;1749989;80;25765;-61
2021/04/24 10:15:44;;;;;;;11.93;4.60;;;;;;;9.20;54.71;101392.30;1742111;79;28527;-62
2021/04/24 10:18:15;;;;;;;7.83;4.25;;;;;;;9.21;54.78;101398.53;1746781;80;26158;-62
2021/04/24 10:20:46;;;;;;;11.00;4.50;;;;;;;9.17;54.67;101392.84;1751825;79;26481;-63
2021/04/24 10:23:15;;;;;;;11.85;4.45;;;;;;;9.05;54.47;101380.20;1777219;79;25811;-62
2021/04/24 10:25:44;;;;;;;13.98;4.85;;;;;;;8.95;54.63;101377.34;1776163;79;25938;-63
2021/04/24 10:28:12;;;;;;;13.88;4.15;;;;;;;8.97;54.80;101371.95;1780894;79;27579;-62
2021/04/24 10:30:40;;;;;;;18.82;5.42;;;;;;;9.02;54.80;101375.39;1776153;79;25820;-65
2021/04/24 10:33:08;;;;;;;18.62;4.95;;;;;;;9.02;54.80;101378.06;1781900;79;26443;-60
2021/04/24 10:35:37;;;;;;;12.98;5.55;;;;;;;9.00;54.72;101378.56;1748066;79;26065;-61
2021/04/24 10:38:07;;;;;;;14.90;5.37;;;;;;;8.96;54.69;101371.53;1725410;80;25935;-61
2021/04/24 10:40:44;;;;;;;13.93;5.12;;;;;;;8.90;54.86;101375.70;1768649;78;27456;-61
2021/04/24 10:43:19;;;;;;;18.30;5.17;;;;;;;8.93;54.87;101382.30;1763435;80;25891;-61
2021/04/24 10:45:47;;;;;;;12.07;4.67;;;;;;;8.97;54.84;101367.48;1770938;78;26236;-60
2021/04/24 10:48:26;;;;;;;13.72;4.42;;;;;;;9.03;54.83;101366.45;1783296;78;25887;-61
2021/04/24 10:50:54;;;;;;;11.78;3.92;;;;;;;9.10;54.60;101384.98;1753556;80;25800;-62
2021/04/24 10:53:30;;;;;;;15.70;4.28;;;;;;;9.13;54.04;101385.36;1725184;81;27787;-61
2021/04/24 10:56:01;;;;;;;11.93;3.83;;;;;;;9.18;53.96;101375.87;1763632;80;26570;-61
2021/04/24 10:58:31;;;;;;;9.20;3.30;;;;;;;9.25;53.60;101376.14;1727198;80;26325;-61
2021/04/24 11:01:06;;;;;;;11.90;4.28;;;;;;;9.37;53.44;101380.70;1757334;80;25946;-61
2021/04/24 11:03:42;;;;;;;6.72;3.70;;;;;;;9.57;53.00;101372.59;1788577;78;25828;-62
2021/04/24 11:06:17;;;;;;;13.40;4.40;;;;;;;9.73;52.28;101364.09;1763429;80;26018;-61
2021/04/24 11:08:49;;;;;;;18.20;4.37;;;;;;;9.88;51.39;101377.97;1733268;80;26154;-60
2021/04/24 11:11:20;;;;;;;10.03;3.92;;;;;;;10.14;51.48;101358.45;1759744;80;25864;-61
2021/04/24 11:13:55;;;;;;;26.75;4.58;;;;;;;10.38;51.23;101358.61;1770917;79;25740;-61
2021/04/24 11:16:32;;;;;;;7.85;3.95;;;;;;;10.53;50.61;101365.27;1763788;80;25791;-62
2021/04/24 11:18:54;;;;;;;12.95;4.67;;;;;;;10.54;50.33;101353.61;1724922;81;27397;-67
2021/04/24 11:21:30;;;;;;;17.48;4.83;;;;;;;10.50;49.84;101349.73;1754471;80;26367;-67
2021/04/24 11:24:01;;;;;;;24.87;5.05;;;;;;;10.59;50.22;101357.48;1766635;79;25933;-67
2021/04/24 11:26:37;;;;;;;14.80;4.25;;;;;;;10.76;49.97;101343.08;1759461;78;25945;-67
2021/04/24 11:29:15;;;;;;;6.85;3.50;;;;;;;10.78;49.79;101346.58;1765904;79;25801;-67
2021/04/24 11:31:52;;;;;;;10.60;3.62;;;;;;;10.77;48.94;101353.34;1714709;81;27810;-65
2021/04/24 11:34:44;;;;;;;8.05;4.33;;;;;;;10.80;47.94;101355.92;1716549;82;26470;-64
2021/04/24 11:37:23;;;;;;;9.00;4.03;;;;;;;10.88;47.65;101351.17;1754310;80;26574;-64
2021/04/24 11:40:27;;;;;;;12.33;4.53;;;;;;;10.88;46.95;101365.46;1730065;80;26623;-65
2021/04/24 11:43:00;;;;;;;9.85;3.58;;;;;;;10.84;47.16;101349.53;1733446;80;26626;-65